Main page
METAR-TAF:

METAR-TAF

Airports :

Esbjerg Airport

Esbjerg, Denmark

latitude: 55-32N, longitude: 008-34E, elevation: 30 m

Current weather observation

The report was made 21 minutes ago, at 04:50 UTC
Wind 4 kt from the East/Northeast
Temperature 11°C
Humidity 94%
Pressure 1016 hPa
Visibility 10 km or more

METAR: EKEB 210450Z AUTO 06004KT 9999 NCD 11/10 Q1016

Time: 07:11 (05:11 UTC)

Forecast

The report was made 3 hours and 7 minutes ago, at 02:04 UTC
Forecast valid from 21 at 02 UTC to 21 at 09 UTC
Wind 5 kt from the Northeast
Visibility 10 km or more
no clouds below 1500 m and no cumulonimbus
Temporary
from 21 at 02 UTC to 21 at 05 UTC
Visibility: 2000 m
mist,

TAF: EKEB 210204Z 2102/2109 04005KT CAVOK TEMPO 2102/2105 2000 BR

Weather observations and forecasts of more than 4000 airports (METAR and TAF reports).

The available stations are represented by yellow and red dots on the map.

Hover mouse over dot to see the name of the station.

Then click to see weather observations and forecasts.

To change the map : click on the green buttons with a black cross to zoom in, on the green button with a dash to zoom out, or on the green arrows for adjacent maps.


METAR-TAF: